sensor_id;sensor_type;location;lat;lon;timestamp;temperature;humidity
27803;DHT22;15182;48.174;11.562;2022-10-31T00:01:55;18.70;93.10
27803;DHT22;15182;48.174;11.562;2022-10-31T00:04:26;18.60;93.10
27803;DHT22;15182;48.174;11.562;2022-10-31T00:07:01;18.60;93.10
27803;DHT22;15182;48.174;11.562;2022-10-31T00:09:32;18.60;93.10
27803;DHT22;15182;48.174;11.562;2022-10-31T00:12:04;18.60;93.10
27803;DHT22;15182;48.174;11.562;2022-10-31T00:14:35;18.50;93.10
27803;DHT22;15182;48.174;11.562;2022-10-31T00:17:08;18.50;93.10
27803;DHT22;15182;48.174;11.562;2022-10-31T00:19:39;18.60;93.20
27803;DHT22;15182;48.174;11.562;2022-10-31T00:22:10;18.50;93.10
27803;DHT22;15182;48.174;11.562;2022-10-31T00:24:41;18.50;93.10
27803;DHT22;15182;48.174;11.562;2022-10-31T00:27:13;18.50;93.10
27803;DHT22;15182;48.174;11.562;2022-10-31T00:29:44;18.50;93.20
27803;DHT22;15182;48.174;11.562;2022-10-31T00:32:16;18.50;93.20
27803;DHT22;15182;48.174;11.562;2022-10-31T00:34:50;18.40;93.20
27803;DHT22;15182;48.174;11.562;2022-10-31T00:37:28;18.40;93.20
27803;DHT22;15182;48.174;11.562;2022-10-31T00:39:59;18.40;93.40
27803;DHT22;15182;48.174;11.562;2022-10-31T00:42:32;18.40;93.30
27803;DHT22;15182;48.174;11.562;2022-10-31T00:45:03;18.40;93.30
27803;DHT22;15182;48.174;11.562;2022-10-31T00:47:36;18.40;93.30
27803;DHT22;15182;48.174;11.562;2022-10-31T00:50:08;18.40;93.30
27803;DHT22;15182;48.174;11.562;2022-10-31T00:52:39;18.30;93.20
27803;DHT22;15182;48.174;11.562;2022-10-31T00:55:11;18.30;93.30
27803;DHT22;15182;48.174;11.562;2022-10-31T00:57:43;18.30;93.30
27803;DHT22;15182;48.174;11.562;2022-10-31T01:00:18;18.30;93.40
27803;DHT22;15182;48.174;11.562;2022-10-31T01:02:51;18.30;93.40
27803;DHT22;15182;48.174;11.562;2022-10-31T01:05:22;18.30;93.40
27803;DHT22;15182;48.174;11.562;2022-10-31T01:07:55;18.30;93.40
27803;DHT22;15182;48.174;11.562;2022-10-31T01:10:28;18.30;93.40
27803;DHT22;15182;48.174;11.562;2022-10-31T01:13:00;18.30;93.40
27803;DHT22;15182;48.174;11.562;2022-10-31T01:15:31;18.30;93.40
27803;DHT22;15182;48.174;11.562;2022-10-31T01:18:04;18.20;93.40
27803;DHT22;15182;48.174;11.562;2022-10-31T01:20:35;18.30;93.50
27803;DHT22;15182;48.174;11.562;2022-10-31T01:23:06;18.20;93.60
27803;DHT22;15182;48.174;11.562;2022-10-31T01:25:38;18.30;93.70
27803;DHT22;15182;48.174;11.562;2022-10-31T01:28:10;18.30;93.70
27803;DHT22;15182;48.174;11.562;2022-10-31T01:30:41;18.30;93.70
27803;DHT22;15182;48.174;11.562;2022-10-31T01:33:14;18.20;93.60
27803;DHT22;15182;48.174;11.562;2022-10-31T01:35:49;18.20;93.60
27803;DHT22;15182;48.174;11.562;2022-10-31T01:38:21;18.20;93.90
27803;DHT22;15182;48.174;11.562;2022-10-31T01:40:52;18.20;93.60
27803;DHT22;15182;48.174;11.562;2022-10-31T01:43:23;18.20;93.60
27803;DHT22;15182;48.174;11.562;2022-10-31T01:46:10;18.20;94.00
27803;DHT22;15182;48.174;11.562;2022-10-31T01:48:44;18.10;94.00
27803;DHT22;15182;48.174;11.562;2022-10-31T01:51:18;18.20;93.70
27803;DHT22;15182;48.174;11.562;2022-10-31T01:53:55;18.10;93.70
27803;DHT22;15182;48.174;11.562;2022-10-31T01:56:29;18.10;93.70
27803;DHT22;15182;48.174;11.562;2022-10-31T01:59:03;18.10;93.70
27803;DHT22;15182;48.174;11.562;2022-10-31T02:01:37;18.10;93.80
27803;DHT22;15182;48.174;11.562;2022-10-31T02:04:10;18.10;93.80
27803;DHT22;15182;48.174;11.562;2022-10-31T02:06:46;18.10;93.90
27803;DHT22;15182;48.174;11.562;2022-10-31T02:09:19;18.10;93.90
27803;DHT22;15182;48.174;11.562;2022-10-31T02:11:54;18.10;93.80
27803;DHT22;15182;48.174;11.562;2022-10-31T02:14:28;18.10;93.80
27803;DHT22;15182;48.174;11.562;2022-10-31T02:17:00;18.10;93.80
27803;DHT22;15182;48.174;11.562;2022-10-31T02:19:38;18.10;93.80
27803;DHT22;15182;48.174;11.562;2022-10-31T02:22:19;18.00;93.80
27803;DHT22;15182;48.174;11.562;2022-10-31T02:25:14;18.00;93.80
27803;DHT22;15182;48.174;11.562;2022-10-31T02:28:12;18.00;93.90
27803;DHT22;15182;48.174;11.562;2022-10-31T02:31:01;18.00;93.80
27803;DHT22;15182;48.174;11.562;2022-10-31T02:33:44;18.00;93.80
27803;DHT22;15182;48.174;11.562;2022-10-31T02:36:24;18.00;93.80
27803;DHT22;15182;48.174;11.562;2022-10-31T02:39:11;18.00;93.80
27803;DHT22;15182;48.174;11.562;2022-10-31T02:41:49;17.90;93.80
27803;DHT22;15182;48.174;11.562;2022-10-31T02:44:32;17.90;93.80
27803;DHT22;15182;48.174;11.562;2022-10-31T02:47:08;17.90;93.80
27803;DHT22;15182;48.174;11.562;2022-10-31T02:49:48;17.90;93.80
27803;DHT22;15182;48.174;11.562;2022-10-31T02:52:24;17.80;93.80
27803;DHT22;15182;48.174;11.562;2022-10-31T02:55:11;17.80;93.70
27803;DHT22;15182;48.174;11.562;2022-10-31T02:58:06;17.80;93.80
27803;DHT22;15182;48.174;11.562;2022-10-31T03:00:46;17.70;93.70
27803;DHT22;15182;48.174;11.562;2022-10-31T03:03:29;17.70;93.80
27803;DHT22;15182;48.174;11.562;2022-10-31T03:06:06;17.70;93.90
27803;DHT22;15182;48.174;11.562;2022-10-31T03:08:46;17.60;93.90
27803;DHT22;15182;48.174;11.562;2022-10-31T03:11:31;17.60;93.90
27803;DHT22;15182;48.174;11.562;2022-10-31T03:14:12;17.60;93.90
27803;DHT22;15182;48.174;11.562;2022-10-31T03:16:53;17.60;93.90
27803;DHT22;15182;48.174;11.562;2022-10-31T03:19:31;17.60;93.90
27803;DHT22;15182;48.174;11.562;2022-10-31T03:22:10;17.60;94.00
27803;DHT22;15182;48.174;11.562;2022-10-31T03:24:49;17.60;94.00
27803;DHT22;15182;48.174;11.562;2022-10-31T03:27:25;17.60;94.00
27803;DHT22;15182;48.174;11.562;2022-10-31T03:30:00;17.50;94.00
27803;DHT22;15182;48.174;11.562;2022-10-31T03:32:47;17.50;94.10
27803;DHT22;15182;48.174;11.562;2022-10-31T03:35:25;17.50;94.00
27803;DHT22;15182;48.174;11.562;2022-10-31T03:38:00;17.50;94.40
27803;DHT22;15182;48.174;11.562;2022-10-31T03:40:37;17.50;94.00
27803;DHT22;15182;48.174;11.562;2022-10-31T03:43:24;17.50;94.00
27803;DHT22;15182;48.174;11.562;2022-10-31T03:45:58;17.50;94.10
27803;DHT22;15182;48.174;11.562;2022-10-31T03:48:30;17.40;94.00
27803;DHT22;15182;48.174;11.562;2022-10-31T03:51:08;17.40;94.00
27803;DHT22;15182;48.174;11.562;2022-10-31T03:53:49;17.40;94.10
27803;DHT22;15182;48.174;11.562;2022-10-31T03:56:28;17.40;94.00
27803;DHT22;15182;48.174;11.562;2022-10-31T03:59:04;17.40;94.10
27803;DHT22;15182;48.174;11.562;2022-10-31T04:01:43;17.40;94.10
27803;DHT22;15182;48.174;11.562;2022-10-31T04:04:17;17.30;94.10
27803;DHT22;15182;48.174;11.562;2022-10-31T04:06:53;17.30;94.10
27803;DHT22;15182;48.174;11.562;2022-10-31T04:09:26;17.30;94.20
27803;DHT22;15182;48.174;11.562;2022-10-31T04:12:02;17.30;94.20
27803;DHT22;15182;48.174;11.562;2022-10-31T04:14:41;17.30;94.20
27803;DHT22;15182;48.174;11.562;2022-10-31T04:17:16;17.30;94.20
27803;DHT22;15182;48.174;11.562;2022-10-31T04:19:49;17.30;94.30
27803;DHT22;15182;48.174;11.562;2022-10-31T04:22:22;17.20;94.20
27803;DHT22;15182;48.174;11.562;2022-10-31T04:24:54;17.20;94.30
27803;DHT22;15182;48.174;11.562;2022-10-31T04:27:25;17.20;94.30
27803;DHT22;15182;48.174;11.562;2022-10-31T04:29:56;17.20;94.30
27803;DHT22;15182;48.174;11.562;2022-10-31T04:32:28;17.20;94.30
27803;DHT22;15182;48.174;11.562;2022-10-31T04:34:59;17.20;94.30
27803;DHT22;15182;48.174;11.562;2022-10-31T04:37:32;17.20;94.30
27803;DHT22;15182;48.174;11.562;2022-10-31T04:40:06;17.20;94.30
27803;DHT22;15182;48.174;11.562;2022-10-31T04:42:58;17.20;94.30
27803;DHT22;15182;48.174;11.562;2022-10-31T04:45:30;17.10;94.20
27803;DHT22;15182;48.174;11.562;2022-10-31T04:48:03;17.10;94.20
27803;DHT22;15182;48.174;11.562;2022-10-31T04:50:41;17.10;94.20
27803;DHT22;15182;48.174;11.562;2022-10-31T04:53:18;17.10;94.20
27803;DHT22;15182;48.174;11.562;2022-10-31T04:56:21;17.10;94.20
27803;DHT22;15182;48.174;11.562;2022-10-31T04:59:01;17.00;94.20
27803;DHT22;15182;48.174;11.562;2022-10-31T05:01:57;17.00;94.20
27803;DHT22;15182;48.174;11.562;2022-10-31T05:04:53;17.00;94.20
27803;DHT22;15182;48.174;11.562;2022-10-31T05:07:24;17.00;94.20
27803;DHT22;15182;48.174;11.562;2022-10-31T05:09:57;16.90;94.20
27803;DHT22;15182;48.174;11.562;2022-10-31T05:12:31;16.90;94.20
27803;DHT22;15182;48.174;11.562;2022-10-31T05:15:09;16.90;94.20
27803;DHT22;15182;48.174;11.562;2022-10-31T05:17:59;16.90;94.20
27803;DHT22;15182;48.174;11.562;2022-10-31T05:21:03;16.90;94.20
27803;DHT22;15182;48.174;11.562;2022-10-31T05:23:39;16.80;94.20
27803;DHT22;15182;48.174;11.562;2022-10-31T05:26:12;16.80;94.20
27803;DHT22;15182;48.174;11.562;2022-10-31T05:28:43;16.80;94.20
27803;DHT22;15182;48.174;11.562;2022-10-31T05:31:15;16.80;94.20
27803;DHT22;15182;48.174;11.562;2022-10-31T05:33:47;16.80;94.30
27803;DHT22;15182;48.174;11.562;2022-10-31T05:36:41;16.80;94.30
27803;DHT22;15182;48.174;11.562;2022-10-31T05:39:21;16.80;94.30
27803;DHT22;15182;48.174;11.562;2022-10-31T05:41:58;16.70;94.30
27803;DHT22;15182;48.174;11.562;2022-10-31T05:44:29;16.70;94.30
27803;DHT22;15182;48.174;11.562;2022-10-31T05:47:14;16.70;94.30
27803;DHT22;15182;48.174;11.562;2022-10-31T05:49:57;16.70;94.20
27803;DHT22;15182;48.174;11.562;2022-10-31T05:52:53;16.70;94.30
27803;DHT22;15182;48.174;11.562;2022-10-31T05:55:35;16.70;94.60
27803;DHT22;15182;48.174;11.562;2022-10-31T05:58:19;16.70;94.20
27803;DHT22;15182;48.174;11.562;2022-10-31T06:00:59;16.60;94.20
27803;DHT22;15182;48.174;11.562;2022-10-31T06:03:31;16.60;94.20
27803;DHT22;15182;48.174;11.562;2022-10-31T06:06:05;16.60;94.20
27803;DHT22;15182;48.174;11.562;2022-10-31T06:08:39;16.60;94.30
27803;DHT22;15182;48.174;11.562;2022-10-31T06:11:16;16.60;94.30
27803;DHT22;15182;48.174;11.562;2022-10-31T06:14:07;16.60;94.40
27803;DHT22;15182;48.174;11.562;2022-10-31T06:16:56;16.60;94.40
27803;DHT22;15182;48.174;11.562;2022-10-31T06:20:08;16.60;94.40
27803;DHT22;15182;48.174;11.562;2022-10-31T06:22:52;16.50;94.40
27803;DHT22;15182;48.174;11.562;2022-10-31T06:25:24;16.60;94.40
27803;DHT22;15182;48.174;11.562;2022-10-31T06:27:56;16.50;94.40
27803;DHT22;15182;48.174;11.562;2022-10-31T06:30:37;16.50;94.50
27803;DHT22;15182;48.174;11.562;2022-10-31T06:33:09;16.50;94.50
27803;DHT22;15182;48.174;11.562;2022-10-31T06:35:47;16.50;94.50
27803;DHT22;15182;48.174;11.562;2022-10-31T06:38:19;16.50;94.60
27803;DHT22;15182;48.174;11.562;2022-10-31T06:40:51;16.50;94.60
27803;DHT22;15182;48.174;11.562;2022-10-31T06:43:24;16.50;94.60
27803;DHT22;15182;48.174;11.562;2022-10-31T06:46:15;16.60;94.60
27803;DHT22;15182;48.174;11.562;2022-10-31T06:49:04;16.60;94.70
27803;DHT22;15182;48.174;11.562;2022-10-31T06:51:42;16.50;94.70
27803;DHT22;15182;48.174;11.562;2022-10-31T06:54:15;16.50;94.70
27803;DHT22;15182;48.174;11.562;2022-10-31T06:56:47;16.50;94.80
27803;DHT22;15182;48.174;11.562;2022-10-31T06:59:19;16.50;94.80
27803;DHT22;15182;48.174;11.562;2022-10-31T07:02:07;16.50;94.80
27803;DHT22;15182;48.174;11.562;2022-10-31T07:04:40;16.60;94.80
27803;DHT22;15182;48.174;11.562;2022-10-31T07:07:15;16.60;94.80
27803;DHT22;15182;48.174;11.562;2022-10-31T07:09:49;16.60;94.80
27803;DHT22;15182;48.174;11.562;2022-10-31T07:12:25;16.60;94.90
27803;DHT22;15182;48.174;11.562;2022-10-31T07:14:59;16.60;94.90
27803;DHT22;15182;48.174;11.562;2022-10-31T07:17:33;16.60;95.00
27803;DHT22;15182;48.174;11.562;2022-10-31T07:20:05;16.60;95.10
27803;DHT22;15182;48.174;11.562;2022-10-31T07:22:37;16.70;95.10
27803;DHT22;15182;48.174;11.562;2022-10-31T07:25:10;16.70;95.20
27803;DHT22;15182;48.174;11.562;2022-10-31T07:28:00;16.70;95.30
27803;DHT22;15182;48.174;11.562;2022-10-31T07:30:31;16.70;95.30
27803;DHT22;15182;48.174;11.562;2022-10-31T07:33:04;16.70;95.30
27803;DHT22;15182;48.174;11.562;2022-10-31T07:35:57;16.80;95.40
27803;DHT22;15182;48.174;11.562;2022-10-31T07:38:32;16.80;95.30
27803;DHT22;15182;48.174;11.562;2022-10-31T07:41:06;16.90;95.40
27803;DHT22;15182;48.174;11.562;2022-10-31T07:43:42;16.90;95.50
27803;DHT22;15182;48.174;11.562;2022-10-31T07:46:21;17.00;95.60
27803;DHT22;15182;48.174;11.562;2022-10-31T07:49:17;17.00;95.50
27803;DHT22;15182;48.174;11.562;2022-10-31T07:52:06;17.10;95.60
27803;DHT22;15182;48.174;11.562;2022-10-31T07:54:47;17.10;95.60
27803;DHT22;15182;48.174;11.562;2022-10-31T07:57:24;17.20;95.60
27803;DHT22;15182;48.174;11.562;2022-10-31T07:59:56;17.30;95.60
27803;DHT22;15182;48.174;11.562;2022-10-31T08:02:28;17.30;95.60
27803;DHT22;15182;48.174;11.562;2022-10-31T08:05:21;17.40;95.80
27803;DHT22;15182;48.174;11.562;2022-10-31T08:08:21;17.50;95.80
27803;DHT22;15182;48.174;11.562;2022-10-31T08:10:57;17.50;95.80
27803;DHT22;15182;48.174;11.562;2022-10-31T08:13:28;17.60;95.80
27803;DHT22;15182;48.174;11.562;2022-10-31T08:16:00;17.70;95.90
27803;DHT22;15182;48.174;11.562;2022-10-31T08:18:34;17.70;95.90
27803;DHT22;15182;48.174;11.562;2022-10-31T08:21:09;17.80;95.90
27803;DHT22;15182;48.174;11.562;2022-10-31T08:23:42;17.90;95.90
27803;DHT22;15182;48.174;11.562;2022-10-31T08:26:15;18.00;96.00
27803;DHT22;15182;48.174;11.562;2022-10-31T08:28:48;18.10;96.10
27803;DHT22;15182;48.174;11.562;2022-10-31T08:31:22;18.20;96.30
27803;DHT22;15182;48.174;11.562;2022-10-31T08:34:13;18.30;96.30
27803;DHT22;15182;48.174;11.562;2022-10-31T08:37:05;18.40;96.40
27803;DHT22;15182;48.174;11.562;2022-10-31T08:39:45;18.50;96.50
27803;DHT22;15182;48.174;11.562;2022-10-31T08:42:18;18.60;96.60
27803;DHT22;15182;48.174;11.562;2022-10-31T08:44:51;18.70;96.70
27803;DHT22;15182;48.174;11.562;2022-10-31T08:47:23;18.70;96.60
27803;DHT22;15182;48.174;11.562;2022-10-31T08:49:58;18.90;96.60
27803;DHT22;15182;48.174;11.562;2022-10-31T08:52:31;19.00;96.50
27803;DHT22;15182;48.174;11.562;2022-10-31T08:55:09;19.00;96.50
27803;DHT22;15182;48.174;11.562;2022-10-31T08:57:59;19.20;96.40
27803;DHT22;15182;48.174;11.562;2022-10-31T09:00:41;19.30;96.30
27803;DHT22;15182;48.174;11.562;2022-10-31T09:03:24;19.40;96.20
27803;DHT22;15182;48.174;11.562;2022-10-31T09:05:58;19.50;96.20
27803;DHT22;15182;48.174;11.562;2022-10-31T09:08:33;19.60;95.90
27803;DHT22;15182;48.174;11.562;2022-10-31T09:11:05;19.70;95.90
27803;DHT22;15182;48.174;11.562;2022-10-31T09:13:59;19.80;95.70
27803;DHT22;15182;48.174;11.562;2022-10-31T09:16:30;19.90;95.60
27803;DHT22;15182;48.174;11.562;2022-10-31T09:19:05;20.00;95.60
27803;DHT22;15182;48.174;11.562;2022-10-31T09:21:37;20.10;95.90
27803;DHT22;15182;48.174;11.562;2022-10-31T09:24:10;20.20;95.30
27803;DHT22;15182;48.174;11.562;2022-10-31T09:26:44;20.30;95.20
27803;DHT22;15182;48.174;11.562;2022-10-31T09:29:27;20.30;95.10
27803;DHT22;15182;48.174;11.562;2022-10-31T09:32:01;20.40;94.70
27803;DHT22;15182;48.174;11.562;2022-10-31T09:34:39;20.50;94.70
27803;DHT22;15182;48.174;11.562;2022-10-31T09:37:12;20.60;94.60
27803;DHT22;15182;48.174;11.562;2022-10-31T09:39:45;20.70;94.40
27803;DHT22;15182;48.174;11.562;2022-10-31T09:42:38;20.80;94.30
27803;DHT22;15182;48.174;11.562;2022-10-31T09:45:29;21.00;94.30
27803;DHT22;15182;48.174;11.562;2022-10-31T09:48:27;21.10;94.10
27803;DHT22;15182;48.174;11.562;2022-10-31T09:51:32;21.20;94.10
27803;DHT22;15182;48.174;11.562;2022-10-31T09:54:30;21.30;93.50
27803;DHT22;15182;48.174;11.562;2022-10-31T09:57:07;21.30;93.10
27803;DHT22;15182;48.174;11.562;2022-10-31T09:59:45;21.40;92.90
27803;DHT22;15182;48.174;11.562;2022-10-31T10:02:24;21.40;92.80
27803;DHT22;15182;48.174;11.562;2022-10-31T10:05:00;21.40;92.50
27803;DHT22;15182;48.174;11.562;2022-10-31T10:07:40;21.40;92.50
27803;DHT22;15182;48.174;11.562;2022-10-31T10:10:48;21.50;92.00
27803;DHT22;15182;48.174;11.562;2022-10-31T10:13:55;21.60;92.00
27803;DHT22;15182;48.174;11.562;2022-10-31T10:19:56;21.70;91.50
27803;DHT22;15182;48.174;11.562;2022-10-31T10:22:38;21.80;91.50
27803;DHT22;15182;48.174;11.562;2022-10-31T10:25:19;21.80;91.40
27803;DHT22;15182;48.174;11.562;2022-10-31T10:27:59;21.90;91.30
27803;DHT22;15182;48.174;11.562;2022-10-31T10:30:40;22.00;91.30
27803;DHT22;15182;48.174;11.562;2022-10-31T10:33:19;22.10;91.20
27803;DHT22;15182;48.174;11.562;2022-10-31T10:35:55;22.20;91.10
27803;DHT22;15182;48.174;11.562;2022-10-31T10:38:33;22.30;90.80
27803;DHT22;15182;48.174;11.562;2022-10-31T10:41:10;22.30;90.50
27803;DHT22;15182;48.174;11.562;2022-10-31T10:43:44;22.40;90.50
27803;DHT22;15182;48.174;11.562;2022-10-31T10:46:26;22.40;90.70
27803;DHT22;15182;48.174;11.562;2022-10-31T10:49:35;22.40;90.20
27803;DHT22;15182;48.174;11.562;2022-10-31T10:52:18;22.50;90.40
27803;DHT22;15182;48.174;11.562;2022-10-31T10:54:59;22.50;90.40
27803;DHT22;15182;48.174;11.562;2022-10-31T10:57:50;22.60;90.10
27803;DHT22;15182;48.174;11.562;2022-10-31T11:00:25;22.60;89.60
27803;DHT22;15182;48.174;11.562;2022-10-31T11:03:00;22.70;90.00
27803;DHT22;15182;48.174;11.562;2022-10-31T11:05:37;22.70;89.70
27803;DHT22;15182;48.174;11.562;2022-10-31T11:08:22;22.70;90.10
27803;DHT22;15182;48.174;11.562;2022-10-31T11:11:00;22.70;90.20
27803;DHT22;15182;48.174;11.562;2022-10-31T11:13:33;22.70;89.00
27803;DHT22;15182;48.174;11.562;2022-10-31T11:16:09;22.70;89.20
27803;DHT22;15182;48.174;11.562;2022-10-31T11:18:46;22.60;88.30
27803;DHT22;15182;48.174;11.562;2022-10-31T11:21:23;22.60;88.00
27803;DHT22;15182;48.174;11.562;2022-10-31T11:24:02;22.60;87.90
27803;DHT22;15182;48.174;11.562;2022-10-31T11:26:38;22.60;88.40
27803;DHT22;15182;48.174;11.562;2022-10-31T11:29:14;22.60;89.40
27803;DHT22;15182;48.174;11.562;2022-10-31T11:31:52;22.60;89.50
27803;DHT22;15182;48.174;11.562;2022-10-31T11:34:31;22.60;89.40
27803;DHT22;15182;48.174;11.562;2022-10-31T11:37:08;22.60;89.20
27803;DHT22;15182;48.174;11.562;2022-10-31T11:39:44;22.70;89.30
27803;DHT22;15182;48.174;11.562;2022-10-31T11:42:21;22.80;89.50
27803;DHT22;15182;48.174;11.562;2022-10-31T11:44:57;22.80;89.70
27803;DHT22;15182;48.174;11.562;2022-10-31T11:47:30;22.90;89.50
27803;DHT22;15182;48.174;11.562;2022-10-31T11:50:11;22.90;88.70
27803;DHT22;15182;48.174;11.562;2022-10-31T11:52:48;23.00;86.80
27803;DHT22;15182;48.174;11.562;2022-10-31T11:55:33;23.00;86.80
27803;DHT22;15182;48.174;11.562;2022-10-31T11:58:18;23.10;85.10
27803;DHT22;15182;48.174;11.562;2022-10-31T12:00:51;23.10;85.70
27803;DHT22;15182;48.174;11.562;2022-10-31T12:03:48;23.20;85.70
27803;DHT22;15182;48.174;11.562;2022-10-31T12:06:27;23.20;84.30
27803;DHT22;15182;48.174;11.562;2022-10-31T12:09:01;23.20;84.70
27803;DHT22;15182;48.174;11.562;2022-10-31T12:11:40;23.20;84.80
27803;DHT22;15182;48.174;11.562;2022-10-31T12:14:24;23.20;84.80
27803;DHT22;15182;48.174;11.562;2022-10-31T12:17:05;23.20;84.10
27803;DHT22;15182;48.174;11.562;2022-10-31T12:19:45;23.10;84.00
27803;DHT22;15182;48.174;11.562;2022-10-31T12:22:29;23.00;83.80
27803;DHT22;15182;48.174;11.562;2022-10-31T12:25:14;23.00;83.70
27803;DHT22;15182;48.174;11.562;2022-10-31T12:28:04;23.00;84.00
27803;DHT22;15182;48.174;11.562;2022-10-31T12:30:48;22.90;84.00
27803;DHT22;15182;48.174;11.562;2022-10-31T12:33:43;22.80;84.60
27803;DHT22;15182;48.174;11.562;2022-10-31T12:36:25;22.80;84.90
27803;DHT22;15182;48.174;11.562;2022-10-31T12:39:24;22.80;85.30
27803;DHT22;15182;48.174;11.562;2022-10-31T12:42:02;22.70;84.90
27803;DHT22;15182;48.174;11.562;2022-10-31T12:44:58;22.80;85.00
27803;DHT22;15182;48.174;11.562;2022-10-31T12:47:44;22.70;84.90
27803;DHT22;15182;48.174;11.562;2022-10-31T12:50:32;22.70;84.80
27803;DHT22;15182;48.174;11.562;2022-10-31T12:53:19;22.60;85.30
27803;DHT22;15182;48.174;11.562;2022-10-31T12:56:06;22.60;85.70
27803;DHT22;15182;48.174;11.562;2022-10-31T12:58:49;22.60;86.10
27803;DHT22;15182;48.174;11.562;2022-10-31T13:01:29;22.60;85.90
27803;DHT22;15182;48.174;11.562;2022-10-31T13:04:05;22.60;85.80
27803;DHT22;15182;48.174;11.562;2022-10-31T13:06:49;22.60;85.90
27803;DHT22;15182;48.174;11.562;2022-10-31T13:09:25;22.60;86.40
27803;DHT22;15182;48.174;11.562;2022-10-31T13:12:07;22.60;86.70
27803;DHT22;15182;48.174;11.562;2022-10-31T13:14:43;22.60;87.00
27803;DHT22;15182;48.174;11.562;2022-10-31T13:17:22;22.60;86.80
27803;DHT22;15182;48.174;11.562;2022-10-31T13:20:20;22.60;87.20
27803;DHT22;15182;48.174;11.562;2022-10-31T13:22:52;22.60;86.60
27803;DHT22;15182;48.174;11.562;2022-10-31T13:25:27;22.60;86.70
27803;DHT22;15182;48.174;11.562;2022-10-31T13:28:03;22.50;86.50
27803;DHT22;15182;48.174;11.562;2022-10-31T13:30:41;22.60;86.80
27803;DHT22;15182;48.174;11.562;2022-10-31T13:33:17;22.60;87.10
27803;DHT22;15182;48.174;11.562;2022-10-31T13:35:55;22.60;87.10
27803;DHT22;15182;48.174;11.562;2022-10-31T13:38:36;22.60;87.20
27803;DHT22;15182;48.174;11.562;2022-10-31T13:41:20;22.50;86.90
27803;DHT22;15182;48.174;11.562;2022-10-31T13:44:02;22.60;86.70
27803;DHT22;15182;48.174;11.562;2022-10-31T13:46:44;22.50;86.90
27803;DHT22;15182;48.174;11.562;2022-10-31T13:49:35;22.50;87.40
27803;DHT22;15182;48.174;11.562;2022-10-31T13:52:22;22.50;87.30
27803;DHT22;15182;48.174;11.562;2022-10-31T13:54:55;22.50;87.70
27803;DHT22;15182;48.174;11.562;2022-10-31T13:57:31;22.50;88.00
27803;DHT22;15182;48.174;11.562;2022-10-31T14:00:21;22.50;87.90
27803;DHT22;15182;48.174;11.562;2022-10-31T14:02:55;22.50;88.30
27803;DHT22;15182;48.174;11.562;2022-10-31T14:05:29;22.50;88.60
27803;DHT22;15182;48.174;11.562;2022-10-31T14:08:03;22.50;89.00
27803;DHT22;15182;48.174;11.562;2022-10-31T14:10:38;22.40;89.30
27803;DHT22;15182;48.174;11.562;2022-10-31T14:13:18;22.40;89.70
27803;DHT22;15182;48.174;11.562;2022-10-31T14:15:58;22.40;90.00
27803;DHT22;15182;48.174;11.562;2022-10-31T14:18:33;22.40;90.50
27803;DHT22;15182;48.174;11.562;2022-10-31T14:21:16;22.40;90.30
27803;DHT22;15182;48.174;11.562;2022-10-31T14:23:59;22.40;90.40
27803;DHT22;15182;48.174;11.562;2022-10-31T14:26:35;22.40;90.40
27803;DHT22;15182;48.174;11.562;2022-10-31T14:29:26;22.40;90.60
27803;DHT22;15182;48.174;11.562;2022-10-31T14:32:04;22.30;90.70
27803;DHT22;15182;48.174;11.562;2022-10-31T14:34:50;22.30;90.70
27803;DHT22;15182;48.174;11.562;2022-10-31T14:37:33;22.30;90.80
27803;DHT22;15182;48.174;11.562;2022-10-31T14:40:22;22.30;91.00
27803;DHT22;15182;48.174;11.562;2022-10-31T14:43:09;22.30;91.30
27803;DHT22;15182;48.174;11.562;2022-10-31T14:46:03;22.30;91.40
27803;DHT22;15182;48.174;11.562;2022-10-31T14:48:51;22.20;91.50
27803;DHT22;15182;48.174;11.562;2022-10-31T14:51:34;22.20;91.70
27803;DHT22;15182;48.174;11.562;2022-10-31T14:54:10;22.20;91.90
27803;DHT22;15182;48.174;11.562;2022-10-31T14:56:48;22.20;91.90
27803;DHT22;15182;48.174;11.562;2022-10-31T14:59:23;22.20;92.10
27803;DHT22;15182;48.174;11.562;2022-10-31T15:01:58;22.10;92.20
27803;DHT22;15182;48.174;11.562;2022-10-31T15:04:39;22.10;92.70
27803;DHT22;15182;48.174;11.562;2022-10-31T15:07:14;22.10;92.40
27803;DHT22;15182;48.174;11.562;2022-10-31T15:09:57;22.10;92.60
27803;DHT22;15182;48.174;11.562;2022-10-31T15:12:33;22.10;92.80
27803;DHT22;15182;48.174;11.562;2022-10-31T15:15:14;22.10;92.90
27803;DHT22;15182;48.174;11.562;2022-10-31T15:17:48;22.00;93.10
27803;DHT22;15182;48.174;11.562;2022-10-31T15:20:25;22.00;93.10
27803;DHT22;15182;48.174;11.562;2022-10-31T15:22:59;22.00;93.20
27803;DHT22;15182;48.174;11.562;2022-10-31T15:25:34;22.00;93.20
27803;DHT22;15182;48.174;11.562;2022-10-31T15:28:15;22.00;93.60
27803;DHT22;15182;48.174;11.562;2022-10-31T15:30:55;22.00;93.70
27803;DHT22;15182;48.174;11.562;2022-10-31T15:33:29;21.90;93.80
27803;DHT22;15182;48.174;11.562;2022-10-31T15:36:03;21.90;93.80
27803;DHT22;15182;48.174;11.562;2022-10-31T15:38:46;21.90;93.90
27803;DHT22;15182;48.174;11.562;2022-10-31T15:41:30;21.90;94.00
27803;DHT22;15182;48.174;11.562;2022-10-31T15:44:10;21.90;94.30
27803;DHT22;15182;48.174;11.562;2022-10-31T15:46:44;21.80;94.20
27803;DHT22;15182;48.174;11.562;2022-10-31T15:49:32;21.80;94.10
27803;DHT22;15182;48.174;11.562;2022-10-31T15:52:11;21.80;94.30
27803;DHT22;15182;48.174;11.562;2022-10-31T15:54:46;21.70;94.40
27803;DHT22;15182;48.174;11.562;2022-10-31T15:57:20;21.70;94.40
27803;DHT22;15182;48.174;11.562;2022-10-31T15:59:52;21.70;94.30
27803;DHT22;15182;48.174;11.562;2022-10-31T16:02:27;21.60;94.30
27803;DHT22;15182;48.174;11.562;2022-10-31T16:05:00;21.60;94.40
27803;DHT22;15182;48.174;11.562;2022-10-31T16:07:51;21.60;94.40
27803;DHT22;15182;48.174;11.562;2022-10-31T16:10:24;21.60;94.60
27803;DHT22;15182;48.174;11.562;2022-10-31T16:12:57;21.50;94.50
27803;DHT22;15182;48.174;11.562;2022-10-31T16:15:29;21.50;94.50
27803;DHT22;15182;48.174;11.562;2022-10-31T16:18:02;21.50;94.60
27803;DHT22;15182;48.174;11.562;2022-10-31T16:20:34;21.50;94.60
27803;DHT22;15182;48.174;11.562;2022-10-31T16:23:11;21.40;94.60
27803;DHT22;15182;48.174;11.562;2022-10-31T16:25:45;21.40;94.70
27803;DHT22;15182;48.174;11.562;2022-10-31T16:28:20;21.40;94.70
27803;DHT22;15182;48.174;11.562;2022-10-31T16:30:53;21.30;94.80